Time;durP1;ratioP1;P1;durP2;ratioP2;P2;SDS_P1;SDS_P2;PMS_P1;PMS_P2;Temp;Humidity;BMP_temperature;BMP_pressure;BME280_temperature;BME280_humidity;BME280_pressure;Samples;Min_cycle;Max_cycle;Signal;HPM_P1;HPM_P2
2023/03/25 00:01:54;;;;;;;3.35;0.90;;;;;;;;;;5055354;28;20189;-65
2023/03/25 00:04:25;;;;;;;2.05;0.90;;;;;;;;;;5054268;28;20209;-65
2023/03/25 00:06:55;;;;;;;2.60;1.40;;;;;;;;;;5051671;28;20216;-64
2023/03/25 00:09:23;;;;;;;4.97;1.15;;;;;;;;;;5055536;28;20266;-65
2023/03/25 00:11:51;;;;;;;3.88;1.20;;;;;;;;;;5050573;28;20250;-66
2023/03/25 00:14:19;;;;;;;2.63;1.00;;;;;;;;;;5055447;28;20656;-65
2023/03/25 00:16:51;;;;;;;3.90;1.00;;;;;;;;;;5055972;28;20684;-66
2023/03/25 00:19:21;;;;;;;5.38;1.73;;;;;;;;;;5042232;28;20200;-65
2023/03/25 00:21:50;;;;;;;1.45;1.00;;;;;;;;;;5045741;28;20204;-65
2023/03/25 00:24:19;;;;;;;3.33;1.00;;;;;;;;;;5054944;28;20204;-65
2023/03/25 00:26:47;;;;;;;3.88;1.75;;;;;;;;;;5054727;28;20231;-65
2023/03/25 00:29:16;;;;;;;4.32;1.10;;;;;;;;;;5050260;28;20243;-64
2023/03/25 00:31:45;;;;;;;4.50;1.30;;;;;;;;;;5045561;28;20203;-64
2023/03/25 00:34:13;;;;;;;3.40;1.45;;;;;;;;;;5032971;28;20216;-64
2023/03/25 00:36:42;;;;;;;11.68;1.40;;;;;;;;;;5050964;28;20211;-65
2023/03/25 00:39:12;;;;;;;3.25;1.20;;;;;;;;;;5053829;28;20621;-65
2023/03/25 00:41:42;;;;;;;4.05;1.20;;;;;;;;;;5053822;28;20204;-65
2023/03/25 00:44:13;;;;;;;5.05;1.65;;;;;;;;;;5054242;28;20265;-65
2023/03/25 00:46:41;;;;;;;4.72;1.98;;;;;;;;;;5054312;28;20213;-65
2023/03/25 00:49:11;;;;;;;2.78;1.10;;;;;;;;;;5048913;28;20560;-65
2023/03/25 00:51:39;;;;;;;2.88;1.00;;;;;;;;;;5034339;28;20205;-65
2023/03/25 00:54:07;;;;;;;3.35;1.38;;;;;;;;;;5032968;28;20205;-66
2023/03/25 00:56:37;;;;;;;5.50;2.10;;;;;;;;;;5034547;28;20209;-66
2023/03/25 00:59:05;;;;;;;3.78;1.50;;;;;;;;;;5034879;28;20227;-66
2023/03/25 01:01:38;;;;;;;2.55;1.10;;;;;;;;;;5032634;28;20213;-65
2023/03/25 01:04:11;;;;;;;2.03;1.13;;;;;;;;;;5032752;28;20247;-66
2023/03/25 01:06:42;;;;;;;2.75;1.45;;;;;;;;;;5033338;28;20511;-66
2023/03/25 01:09:13;;;;;;;8.77;1.60;;;;;;;;;;5033697;28;20636;-66
2023/03/25 01:11:44;;;;;;;5.20;2.65;;;;;;;;;;5033708;28;20193;-66
2023/03/25 01:14:14;;;;;;;6.47;2.45;;;;;;;;;;5040900;28;20279;-65
2023/03/25 01:16:43;;;;;;;1.63;1.20;;;;;;;;;;5052876;28;20208;-66
2023/03/25 01:19:11;;;;;;;2.33;1.23;;;;;;;;;;5053613;28;20216;-66
2023/03/25 01:21:39;;;;;;;4.20;0.90;;;;;;;;;;5052767;28;20318;-65
2023/03/25 01:24:11;;;;;;;3.30;1.15;;;;;;;;;;5043556;28;20205;-65
2023/03/25 01:26:42;;;;;;;4.80;0.98;;;;;;;;;;5048319;28;20243;-65
2023/03/25 01:29:12;;;;;;;3.45;1.25;;;;;;;;;;5052682;28;20229;-65
2023/03/25 01:31:40;;;;;;;2.80;1.10;;;;;;;;;;5052218;28;20212;-66
2023/03/25 01:34:08;;;;;;;4.70;1.60;;;;;;;;;;5053134;28;20204;-66
2023/03/25 01:36:38;;;;;;;8.95;2.08;;;;;;;;;;5048021;28;20206;-67
2023/03/25 01:39:08;;;;;;;3.65;1.25;;;;;;;;;;5053042;28;20220;-66
2023/03/25 01:41:37;;;;;;;2.58;1.30;;;;;;;;;;5052384;28;20261;-66
2023/03/25 01:44:06;;;;;;;1.40;1.13;;;;;;;;;;5052672;28;20215;-66
2023/03/25 01:46:36;;;;;;;3.20;1.40;;;;;;;;;;5052756;28;20226;-66
2023/03/25 01:49:06;;;;;;;3.53;1.45;;;;;;;;;;5052070;28;20207;-67
2023/03/25 01:51:35;;;;;;;1.40;0.95;;;;;;;;;;5052173;28;20528;-66
2023/03/25 01:54:03;;;;;;;1.65;1.17;;;;;;;;;;5052253;28;20200;-66
2023/03/25 01:56:33;;;;;;;1.20;1.00;;;;;;;;;;5052806;28;20208;-66
2023/03/25 01:59:03;;;;;;;2.10;1.15;;;;;;;;;;5052449;28;20205;-66
2023/03/25 02:01:32;;;;;;;2.08;1.00;;;;;;;;;;5052772;28;20215;-69
2023/03/25 02:04:08;;;;;;;0.73;0.73;;;;;;;;;;5051378;28;20205;-70
2023/03/25 02:06:39;;;;;;;3.85;2.30;;;;;;;;;;5052584;28;20192;-70
2023/03/25 02:09:07;;;;;;;2.42;0.95;;;;;;;;;;5052619;28;20212;-70
2023/03/25 02:11:36;;;;;;;0.90;0.77;;;;;;;;;;5040288;28;20201;-67
2023/03/25 02:14:06;;;;;;;1.75;0.70;;;;;;;;;;5032434;28;20201;-67
2023/03/25 02:16:38;;;;;;;0.70;0.60;;;;;;;;;;5031398;28;20186;-67
2023/03/25 02:19:22;;;;;;;0.93;0.70;;;;;;;;;;5045052;28;20189;-68
2023/03/25 02:22:03;;;;;;;1.20;0.90;;;;;;;;;;5052235;28;20197;-68
2023/03/25 02:24:44;;;;;;;0.70;0.70;;;;;;;;;;5043750;28;20208;-67
2023/03/25 02:27:26;;;;;;;1.77;0.60;;;;;;;;;;5032521;28;20197;-67
2023/03/25 02:30:13;;;;;;;1.27;0.65;;;;;;;;;;5039919;28;20229;-67
2023/03/25 02:32:58;;;;;;;0.90;0.68;;;;;;;;;;5042805;28;20193;-67
2023/03/25 02:35:32;;;;;;;6.38;0.95;;;;;;;;;;5052844;28;20203;-69
2023/03/25 02:38:17;;;;;;;1.45;0.60;;;;;;;;;;5047328;28;20195;-67
2023/03/25 02:40:48;;;;;;;3.65;0.70;;;;;;;;;;5050067;28;20616;-67
2023/03/25 02:43:19;;;;;;;5.55;1.00;;;;;;;;;;5032466;28;20219;-67
2023/03/25 02:45:51;;;;;;;0.70;0.70;;;;;;;;;;5016933;28;20303;-68
2023/03/25 02:48:22;;;;;;;1.92;0.70;;;;;;;;;;5034686;28;20211;-68
2023/03/25 02:50:52;;;;;;;0.70;0.70;;;;;;;;;;5052049;28;20256;-69
2023/03/25 02:53:24;;;;;;;1.25;0.70;;;;;;;;;;5050616;28;20215;-69
2023/03/25 02:55:53;;;;;;;1.05;0.95;;;;;;;;;;5051987;28;20196;-68
2023/03/25 02:58:23;;;;;;;0.88;0.88;;;;;;;;;;5044472;28;20220;-68
2023/03/25 03:00:52;;;;;;;2.88;0.77;;;;;;;;;;5050850;28;20201;-68
2023/03/25 03:03:20;;;;;;;1.30;0.80;;;;;;;;;;5024665;28;20201;-68
2023/03/25 03:05:50;;;;;;;1.00;0.80;;;;;;;;;;5031491;28;20212;-68
2023/03/25 03:08:25;;;;;;;3.20;0.80;;;;;;;;;;5031165;28;20202;-68
2023/03/25 03:10:58;;;;;;;0.65;0.63;;;;;;;;;;5030348;28;20212;-68
2023/03/25 03:13:30;;;;;;;0.70;0.70;;;;;;;;;;5041158;28;20193;-68
2023/03/25 03:16:03;;;;;;;2.50;0.90;;;;;;;;;;5047895;28;20197;-68
2023/03/25 03:18:41;;;;;;;2.80;0.70;;;;;;;;;;5032356;28;20199;-68
2023/03/25 03:21:11;;;;;;;0.90;0.68;;;;;;;;;;5030062;28;20189;-69
2023/03/25 03:23:47;;;;;;;1.10;0.70;;;;;;;;;;5032233;28;20568;-68
2023/03/25 03:26:21;;;;;;;3.55;1.08;;;;;;;;;;5043243;28;20197;-69
2023/03/25 03:28:51;;;;;;;3.72;1.10;;;;;;;;;;5031414;28;20711;-68
2023/03/25 03:31:24;;;;;;;0.80;0.80;;;;;;;;;;5038780;28;20579;-68
2023/03/25 03:33:54;;;;;;;2.85;1.10;;;;;;;;;;5051728;28;20200;-68
2023/03/25 03:36:25;;;;;;;0.95;0.95;;;;;;;;;;5050858;28;20201;-68
2023/03/25 03:38:59;;;;;;;1.25;0.95;;;;;;;;;;5040073;28;20195;-68
2023/03/25 03:41:28;;;;;;;1.35;0.90;;;;;;;;;;5051182;28;20539;-69
2023/03/25 03:43:58;;;;;;;1.60;0.90;;;;;;;;;;5051513;28;20671;-69
2023/03/25 03:46:28;;;;;;;0.70;0.70;;;;;;;;;;5050220;28;20224;-68
2023/03/25 03:48:58;;;;;;;1.50;0.75;;;;;;;;;;5051490;28;20288;-68
2023/03/25 03:51:29;;;;;;;1.52;0.85;;;;;;;;;;5050775;28;20220;-69
2023/03/25 03:54:00;;;;;;;1.48;0.80;;;;;;;;;;5051186;28;20193;-68
2023/03/25 03:56:31;;;;;;;2.85;0.90;;;;;;;;;;5051273;28;20191;-69
2023/03/25 03:59:01;;;;;;;1.13;0.98;;;;;;;;;;5051538;28;20185;-68
2023/03/25 04:01:33;;;;;;;1.08;0.80;;;;;;;;;;5049419;28;20189;-68
2023/03/25 04:04:03;;;;;;;4.45;1.27;;;;;;;;;;5050178;28;20648;-68
2023/03/25 04:06:34;;;;;;;2.83;0.90;;;;;;;;;;5050623;28;20212;-68
2023/03/25 04:09:09;;;;;;;1.17;1.00;;;;;;;;;;5051073;28;20205;-68
2023/03/25 04:11:40;;;;;;;1.70;0.80;;;;;;;;;;5051019;28;20563;-68
2023/03/25 04:14:09;;;;;;;2.85;0.82;;;;;;;;;;5051572;28;20193;-68
2023/03/25 04:16:37;;;;;;;2.72;1.10;;;;;;;;;;5054785;28;20209;-68
2023/03/25 04:19:08;;;;;;;1.40;1.30;;;;;;;;;;5054730;28;20205;-68
2023/03/25 04:21:36;;;;;;;2.75;1.60;;;;;;;;;;5054604;28;20310;-68
2023/03/25 04:24:07;;;;;;;1.35;1.00;;;;;;;;;;5049803;28;20205;-68
2023/03/25 04:26:37;;;;;;;7.50;4.15;;;;;;;;;;5033591;28;20194;-68
2023/03/25 04:29:06;;;;;;;12.15;9.95;;;;;;;;;;5035154;28;20605;-68
2023/03/25 04:31:34;;;;;;;5.78;3.28;;;;;;;;;;5038760;28;20219;-68
2023/03/25 04:34:03;;;;;;;3.92;2.20;;;;;;;;;;5055044;28;20204;-68
2023/03/25 04:36:36;;;;;;;10.30;5.22;;;;;;;;;;5054960;28;20204;-68
2023/03/25 04:39:06;;;;;;;19.27;12.15;;;;;;;;;;5054621;28;20199;-68
2023/03/25 04:41:37;;;;;;;5.38;1.60;;;;;;;;;;5054859;28;20195;-68
2023/03/25 04:44:07;;;;;;;2.10;1.20;;;;;;;;;;5054873;28;20214;-68
2023/03/25 04:46:35;;;;;;;2.28;1.10;;;;;;;;;;5054502;28;20221;-68
2023/03/25 04:49:04;;;;;;;4.80;1.70;;;;;;;;;;5054620;28;20204;-69
2023/03/25 04:51:33;;;;;;;3.83;1.13;;;;;;;;;;5054926;28;20212;-68
2023/03/25 04:54:01;;;;;;;3.03;1.30;;;;;;;;;;5054415;28;20209;-68
2023/03/25 04:56:31;;;;;;;2.40;1.35;;;;;;;;;;5049330;28;20205;-68
2023/03/25 04:58:59;;;;;;;4.22;1.27;;;;;;;;;;5054476;28;20571;-69
2023/03/25 05:01:29;;;;;;;6.18;1.60;;;;;;;;;;5053686;28;20568;-68
2023/03/25 05:04:03;;;;;;;5.35;1.60;;;;;;;;;;5051672;28;20259;-68
2023/03/25 05:06:32;;;;;;;6.90;1.65;;;;;;;;;;5053878;28;20199;-69
2023/03/25 05:09:02;;;;;;;3.83;1.20;;;;;;;;;;5049459;28;20200;-68
2023/03/25 05:11:32;;;;;;;2.78;1.25;;;;;;;;;;5053812;28;20247;-68
2023/03/25 05:14:00;;;;;;;4.63;2.13;;;;;;;;;;5050015;28;20196;-68
2023/03/25 05:16:29;;;;;;;5.95;1.30;;;;;;;;;;5055739;28;20208;-68
2023/03/25 05:18:57;;;;;;;5.38;1.50;;;;;;;;;;5055494;28;20200;-68
2023/03/25 05:21:26;;;;;;;7.00;1.55;;;;;;;;;;5053582;28;20208;-68
2023/03/25 05:23:54;;;;;;;2.65;1.25;;;;;;;;;;5054157;28;20582;-68
2023/03/25 05:26:22;;;;;;;3.97;1.60;;;;;;;;;;5053742;28;20552;-68
2023/03/25 05:28:55;;;;;;;5.07;1.77;;;;;;;;;;5053717;28;20233;-68
2023/03/25 05:31:23;;;;;;;6.18;1.77;;;;;;;;;;5053934;28;20675;-68
2023/03/25 05:33:53;;;;;;;7.68;1.92;;;;;;;;;;5053258;28;20550;-68
2023/03/25 05:36:23;;;;;;;7.40;1.15;;;;;;;;;;5044773;28;20563;-69
2023/03/25 05:38:53;;;;;;;6.82;2.03;;;;;;;;;;5034845;28;20205;-68
2023/03/25 05:41:31;;;;;;;3.22;1.40;;;;;;;;;;5034803;28;20209;-69
2023/03/25 05:44:01;;;;;;;3.90;1.60;;;;;;;;;;5033868;28;20190;-69
2023/03/25 05:46:29;;;;;;;3.53;1.25;;;;;;;;;;5048685;28;20217;-69
2023/03/25 05:48:59;;;;;;;5.43;1.45;;;;;;;;;;5053849;28;20204;-68
2023/03/25 05:51:28;;;;;;;6.85;2.08;;;;;;;;;;5053214;28;20227;-68
2023/03/25 05:53:56;;;;;;;6.65;1.60;;;;;;;;;;5053429;28;20208;-68
2023/03/25 05:56:25;;;;;;;5.15;2.10;;;;;;;;;;5053496;28;20204;-68
2023/03/25 05:58:53;;;;;;;5.65;1.55;;;;;;;;;;5053102;28;20209;-68
2023/03/25 06:01:22;;;;;;;4.65;1.55;;;;;;;;;;5052482;28;20732;-68
2023/03/25 06:03:51;;;;;;;6.22;1.40;;;;;;;;;;5051617;28;20211;-68
2023/03/25 06:06:19;;;;;;;4.97;1.55;;;;;;;;;;5053362;28;20204;-68
2023/03/25 06:08:48;;;;;;;5.55;1.52;;;;;;;;;;5052824;28;20205;-69
2023/03/25 06:11:17;;;;;;;9.15;2.67;;;;;;;;;;5052788;28;20731;-69
2023/03/25 06:13:48;;;;;;;5.43;1.67;;;;;;;;;;5053096;28;20204;-69
2023/03/25 06:16:18;;;;;;;4.68;1.83;;;;;;;;;;5053533;28;20199;-69
2023/03/25 06:18:55;;;;;;;6.80;1.98;;;;;;;;;;5052477;28;20189;-69
2023/03/25 06:21:25;;;;;;;5.78;1.90;;;;;;;;;;5051163;28;20207;-68
2023/03/25 06:23:54;;;;;;;3.50;1.40;;;;;;;;;;5051417;28;20191;-69
2023/03/25 06:26:23;;;;;;;7.80;1.77;;;;;;;;;;5047186;28;20219;-68
2023/03/25 06:28:51;;;;;;;4.35;1.70;;;;;;;;;;5052469;28;20237;-68
2023/03/25 06:31:21;;;;;;;7.57;2.00;;;;;;;;;;5052781;28;20231;-68
2023/03/25 06:33:50;;;;;;;4.65;1.75;;;;;;;;;;5050310;28;20207;-68
2023/03/25 06:36:19;;;;;;;6.18;1.50;;;;;;;;;;5042729;28;20677;-68
2023/03/25 06:38:48;;;;;;;8.45;1.80;;;;;;;;;;5048785;28;20207;-68
2023/03/25 06:41:19;;;;;;;11.40;2.10;;;;;;;;;;5051499;28;20211;-68
2023/03/25 06:43:50;;;;;;;6.45;1.83;;;;;;;;;;5051196;28;20195;-68
2023/03/25 06:46:19;;;;;;;4.75;1.70;;;;;;;;;;5052614;28;20293;-68
2023/03/25 06:49:17;;;;;;;7.65;1.73;;;;;;;;;;5047481;28;20690;-68
2023/03/25 06:51:45;;;;;;;7.93;1.75;;;;;;;;;;5052199;28;20229;-68
2023/03/25 06:54:14;;;;;;;15.25;1.83;;;;;;;;;;5034771;28;20208;-69
2023/03/25 06:56:42;;;;;;;10.77;2.25;;;;;;;;;;5052387;28;20201;-69
2023/03/25 06:59:10;;;;;;;8.30;1.55;;;;;;;;;;5051662;28;20204;-68
2023/03/25 07:01:38;;;;;;;6.95;1.63;;;;;;;;;;5048620;28;20558;-68
2023/03/25 07:04:07;;;;;;;7.53;1.95;;;;;;;;;;5064085;28;20200;-68
2023/03/25 07:06:36;;;;;;;6.55;1.55;;;;;;;;;;5057870;28;20197;-68
2023/03/25 07:09:05;;;;;;;7.47;2.22;;;;;;;;;;5048232;28;20652;-68
2023/03/25 07:11:33;;;;;;;9.15;1.75;;;;;;;;;;5048494;28;20226;-68
2023/03/25 07:14:01;;;;;;;3.65;1.88;;;;;;;;;;5047234;28;20215;-68
2023/03/25 07:16:30;;;;;;;14.80;1.90;;;;;;;;;;5063474;28;20191;-68
2023/03/25 07:18:58;;;;;;;3.10;1.27;;;;;;;;;;5068796;28;20667;-68
2023/03/25 07:21:27;;;;;;;6.75;1.90;;;;;;;;;;5068924;28;20196;-68
2023/03/25 07:23:56;;;;;;;3.55;1.60;;;;;;;;;;5067917;28;20196;-68
2023/03/25 07:26:24;;;;;;;4.90;1.50;;;;;;;;;;5065731;28;20204;-68
2023/03/25 07:28:52;;;;;;;4.63;1.40;;;;;;;;;;5064642;28;20303;-68
2023/03/25 07:31:21;;;;;;;7.95;1.75;;;;;;;;;;5049693;28;20668;-68
2023/03/25 07:33:50;;;;;;;5.75;2.03;;;;;;;;;;5041450;28;20205;-69
2023/03/25 07:36:20;;;;;;;7.43;1.63;;;;;;;;;;5039819;28;20574;-68
2023/03/25 07:38:48;;;;;;;4.82;1.63;;;;;;;;;;5038328;28;20182;-69
2023/03/25 07:41:18;;;;;;;8.25;1.10;;;;;;;;;;5041344;28;20215;-68
2023/03/25 07:44:04;;;;;;;1.17;0.80;;;;;;;;;;5040075;28;20192;-68
2023/03/25 07:46:33;;;;;;;1.55;1.45;;;;;;;;;;5041694;28;20216;-69
2023/03/25 07:49:02;;;;;;;2.70;1.15;;;;;;;;;;5047511;28;20567;-69
2023/03/25 07:51:32;;;;;;;4.75;1.35;;;;;;;;;;5045632;28;20223;-69
2023/03/25 07:54:00;;;;;;;4.00;0.85;;;;;;;;;;5049486;28;20200;-69
2023/03/25 07:56:29;;;;;;;4.55;1.25;;;;;;;;;;5044942;28;20609;-69
2023/03/25 07:58:57;;;;;;;1.60;1.05;;;;;;;;;;5055603;28;20208;-69
2023/03/25 08:01:26;;;;;;;7.78;1.63;;;;;;;;;;5046191;28;20208;-69
2023/03/25 08:03:54;;;;;;;1.95;0.77;;;;;;;;;;5059087;28;20193;-69
2023/03/25 08:06:22;;;;;;;4.97;1.27;;;;;;;;;;5053372;28;20269;-70
2023/03/25 08:08:50;;;;;;;2.60;1.00;;;;;;;;;;5049483;28;20219;-70
2023/03/25 08:11:18;;;;;;;1.73;0.90;;;;;;;;;;5044034;28;20205;-69
2023/03/25 08:13:48;;;;;;;4.07;1.33;;;;;;;;;;5041219;28;20583;-70
2023/03/25 08:16:16;;;;;;;1.13;0.95;;;;;;;;;;5034366;28;20213;-70
2023/03/25 08:18:51;;;;;;;3.03;1.00;;;;;;;;;;5055320;28;20201;-70
2023/03/25 08:21:23;;;;;;;2.72;1.05;;;;;;;;;;5053679;28;20707;-70
2023/03/25 08:23:57;;;;;;;4.10;0.93;;;;;;;;;;5034958;28;20193;-70
2023/03/25 08:26:26;;;;;;;1.50;1.40;;;;;;;;;;5036227;28;20673;-69
2023/03/25 08:28:56;;;;;;;1.38;1.05;;;;;;;;;;5034686;28;20236;-70
2023/03/25 08:31:25;;;;;;;1.88;0.80;;;;;;;;;;5033238;28;20205;-69
2023/03/25 08:33:53;;;;;;;2.00;0.90;;;;;;;;;;5035057;28;20225;-69
2023/03/25 08:36:22;;;;;;;2.20;1.38;;;;;;;;;;5034816;28;20753;-69
2023/03/25 08:38:50;;;;;;;1.60;0.70;;;;;;;;;;5035175;28;20223;-69
2023/03/25 08:41:19;;;;;;;1.52;0.93;;;;;;;;;;5034789;28;20206;-69
2023/03/25 08:43:47;;;;;;;2.10;0.90;;;;;;;;;;5049663;28;20215;-69
2023/03/25 08:46:17;;;;;;;3.22;1.13;;;;;;;;;;5050774;28;20216;-69
2023/03/25 08:48:47;;;;;;;1.25;1.02;;;;;;;;;;5054585;28;20205;-69
2023/03/25 08:51:15;;;;;;;4.25;1.42;;;;;;;;;;5055336;28;20196;-69
2023/03/25 08:53:43;;;;;;;3.28;1.40;;;;;;;;;;5054384;28;20447;-69
2023/03/25 08:56:12;;;;;;;1.13;1.02;;;;;;;;;;5038231;28;20205;-69
2023/03/25 08:58:40;;;;;;;1.75;0.90;;;;;;;;;;5033676;28;20213;-68
2023/03/25 09:01:08;;;;;;;1.23;1.13;;;;;;;;;;5045059;28;20207;-68
2023/03/25 09:03:39;;;;;;;3.35;1.10;;;;;;;;;;5051578;28;20199;-68
2023/03/25 09:06:08;;;;;;;2.67;1.33;;;;;;;;;;5039516;28;20208;-69
2023/03/25 09:08:37;;;;;;;2.22;2.03;;;;;;;;;;5050073;28;20624;-68
2023/03/25 09:11:05;;;;;;;1.85;1.33;;;;;;;;;;5041098;28;20202;-68
2023/03/25 09:13:34;;;;;;;2.80;1.95;;;;;;;;;;5048171;28;20223;-68
2023/03/25 09:16:02;;;;;;;3.50;1.40;;;;;;;;;;5052963;28;20208;-68
2023/03/25 09:18:32;;;;;;;5.07;2.47;;;;;;;;;;5050125;28;20582;-68
2023/03/25 09:21:01;;;;;;;3.45;1.58;;;;;;;;;;5050502;28;20210;-69
2023/03/25 09:23:30;;;;;;;1.20;0.73;;;;;;;;;;5047032;28;20208;-68
2023/03/25 09:26:01;;;;;;;3.15;1.98;;;;;;;;;;5053452;28;20211;-69
2023/03/25 09:28:30;;;;;;;2.92;1.23;;;;;;;;;;5055119;28;20548;-70
2023/03/25 09:30:58;;;;;;;1.00;0.90;;;;;;;;;;5053529;28;20557;-69
2023/03/25 09:33:27;;;;;;;3.28;1.30;;;;;;;;;;5046186;28;20208;-71
2023/03/25 09:35:55;;;;;;;3.42;1.00;;;;;;;;;;5033514;28;20254;-69
2023/03/25 09:38:25;;;;;;;1.08;1.00;;;;;;;;;;5035002;28;20672;-69
2023/03/25 09:40:53;;;;;;;2.45;1.40;;;;;;;;;;5034796;28;20201;-69
2023/03/25 09:43:28;;;;;;;7.15;2.10;;;;;;;;;;5049574;28;20679;-70
2023/03/25 09:45:57;;;;;;;2.20;1.25;;;;;;;;;;5042964;28;20224;-69
2023/03/25 09:48:28;;;;;;;1.40;1.00;;;;;;;;;;5054728;28;20204;-70
2023/03/25 09:50:59;;;;;;;1.33;1.23;;;;;;;;;;5054335;28;20228;-69
2023/03/25 09:53:31;;;;;;;4.05;1.10;;;;;;;;;;5043715;28;20210;-68
2023/03/25 09:56:00;;;;;;;1.85;1.15;;;;;;;;;;5036268;28;20201;-70
2023/03/25 09:58:32;;;;;;;2.30;1.10;;;;;;;;;;5052345;28;20245;-68
2023/03/25 10:01:05;;;;;;;0.80;0.80;;;;;;;;;;5044283;28;20201;-70
2023/03/25 10:03:38;;;;;;;1.33;1.10;;;;;;;;;;5049173;28;20205;-69
2023/03/25 10:06:19;;;;;;;5.40;1.50;;;;;;;;;;5053400;28;20647;-69
2023/03/25 10:08:57;;;;;;;2.35;1.10;;;;;;;;;;5053533;28;20201;-68
2023/03/25 10:11:30;;;;;;;2.58;1.10;;;;;;;;;;5053611;28;20208;-66
2023/03/25 10:14:01;;;;;;;2.17;1.33;;;;;;;;;;5053078;28;20205;-67
2023/03/25 10:16:37;;;;;;;3.30;1.38;;;;;;;;;;5053713;28;20204;-72
2023/03/25 10:19:13;;;;;;;2.92;1.70;;;;;;;;;;5052872;28;20212;-68
2023/03/25 10:21:49;;;;;;;1.60;1.50;;;;;;;;;;5040541;28;20192;-69
2023/03/25 10:24:21;;;;;;;1.50;1.40;;;;;;;;;;5052937;28;20623;-69
2023/03/25 10:26:53;;;;;;;1.10;0.82;;;;;;;;;;5049753;28;20250;-68
2023/03/25 10:29:22;;;;;;;1.67;1.02;;;;;;;;;;5036362;28;20237;-68
2023/03/25 10:31:52;;;;;;;0.82;0.82;;;;;;;;;;5036376;28;20204;-67
2023/03/25 10:34:22;;;;;;;2.30;1.23;;;;;;;;;;5050055;28;20238;-68
2023/03/25 10:36:53;;;;;;;1.30;1.20;;;;;;;;;;5041162;28;20235;-68
2023/03/25 10:39:23;;;;;;;1.53;0.90;;;;;;;;;;5047617;28;20205;-67
2023/03/25 10:41:53;;;;;;;2.17;0.90;;;;;;;;;;5051503;28;21212;-67
2023/03/25 10:44:22;;;;;;;1.90;1.27;;;;;;;;;;5033790;28;20605;-67
2023/03/25 10:46:52;;;;;;;3.35;1.35;;;;;;;;;;5032365;28;20225;-66
2023/03/25 10:49:21;;;;;;;5.33;1.57;;;;;;;;;;5045642;28;20193;-67
2023/03/25 10:51:52;;;;;;;2.30;0.90;;;;;;;;;;5051886;28;20602;-67
2023/03/25 10:54:22;;;;;;;2.03;1.17;;;;;;;;;;5034374;28;20220;-67
2023/03/25 10:56:52;;;;;;;2.07;1.33;;;;;;;;;;5032054;28;20640;-67
2023/03/25 10:59:23;;;;;;;1.30;1.10;;;;;;;;;;5035297;28;20587;-67
2023/03/25 11:01:53;;;;;;;2.80;1.40;;;;;;;;;;5031299;28;20186;-66
2023/03/25 11:04:21;;;;;;;2.15;1.50;;;;;;;;;;5048286;28;20598;-66
2023/03/25 11:06:52;;;;;;;6.10;1.63;;;;;;;;;;5050587;28;20211;-67
2023/03/25 11:09:24;;;;;;;3.95;1.30;;;;;;;;;;5034573;28;20251;-67
2023/03/25 11:11:54;;;;;;;3.10;1.75;;;;;;;;;;5043783;28;20200;-68
2023/03/25 11:14:23;;;;;;;7.90;1.77;;;;;;;;;;5045009;28;20204;-68
2023/03/25 11:16:54;;;;;;;2.50;1.93;;;;;;;;;;5030609;28;20197;-68
2023/03/25 11:19:25;;;;;;;2.97;2.77;;;;;;;;;;5046090;28;20591;-68
2023/03/25 11:21:55;;;;;;;3.40;3.20;;;;;;;;;;5031839;28;20570;-67
2023/03/25 11:24:24;;;;;;;4.30;4.00;;;;;;;;;;5033968;28;20591;-67
2023/03/25 11:26:54;;;;;;;4.90;4.50;;;;;;;;;;5036554;28;20634;-68
2023/03/25 11:29:25;;;;;;;5.17;4.77;;;;;;;;;;5037861;28;20640;-68
2023/03/25 11:31:57;;;;;;;8.33;5.80;;;;;;;;;;5046346;28;21144;-68
2023/03/25 11:34:27;;;;;;;5.17;4.87;;;;;;;;;;5048081;28;20651;-67
2023/03/25 11:36:56;;;;;;;7.40;5.60;;;;;;;;;;5060927;28;20660;-67
2023/03/25 11:39:30;;;;;;;5.87;5.57;;;;;;;;;;5064695;28;20629;-68
2023/03/25 11:41:59;;;;;;;3.80;3.70;;;;;;;;;;5065818;28;20633;-67
2023/03/25 11:44:29;;;;;;;2.57;2.47;;;;;;;;;;5056501;28;21154;-65
2023/03/25 11:46:59;;;;;;;3.63;2.60;;;;;;;;;;5054125;28;21201;-67
2023/03/25 11:49:28;;;;;;;2.73;2.43;;;;;;;;;;5043926;28;20627;-67
2023/03/25 11:52:01;;;;;;;3.67;3.37;;;;;;;;;;5042656;28;20619;-67
2023/03/25 11:54:29;;;;;;;5.17;4.97;;;;;;;;;;5045271;28;20654;-67
2023/03/25 11:56:57;;;;;;;6.70;5.70;;;;;;;;;;5055263;28;20747;-68
2023/03/25 11:59:28;;;;;;;7.40;6.70;;;;;;;;;;5044926;28;20642;-66
2023/03/25 12:02:02;;;;;;;6.17;5.97;;;;;;;;;;5055981;28;20659;-68
2023/03/25 12:04:31;;;;;;;5.80;5.60;;;;;;;;;;5061667;28;20603;-67
2023/03/25 12:07:01;;;;;;;6.20;5.80;;;;;;;;;;5054353;28;20934;-67
2023/03/25 12:09:30;;;;;;;6.53;6.30;;;;;;;;;;5047424;28;20639;-67
2023/03/25 12:12:05;;;;;;;7.20;6.80;;;;;;;;;;5049021;28;20630;-67
2023/03/25 12:14:39;;;;;;;7.30;6.70;;;;;;;;;;5041584;28;20643;-68
2023/03/25 12:17:15;;;;;;;7.90;7.50;;;;;;;;;;5046616;28;20577;-68
2023/03/25 12:19:48;;;;;;;8.87;8.27;;;;;;;;;;5055854;28;20969;-68
2023/03/25 12:22:21;;;;;;;9.67;8.83;;;;;;;;;;5061427;28;20618;-68
2023/03/25 12:25:02;;;;;;;9.53;8.93;;;;;;;;;;5061911;28;21152;-67
2023/03/25 12:27:38;;;;;;;9.63;9.07;;;;;;;;;;5063296;28;21136;-67
2023/03/25 12:30:13;;;;;;;8.20;7.90;;;;;;;;;;5060407;28;20656;-69
2023/03/25 12:32:46;;;;;;;8.00;7.70;;;;;;;;;;5060512;28;21159;-70
2023/03/25 12:35:21;;;;;;;9.73;9.00;;;;;;;;;;5035565;28;20635;-68
2023/03/25 12:37:59;;;;;;;9.70;9.30;;;;;;;;;;5062722;28;20581;-69
2023/03/25 12:40:32;;;;;;;9.50;9.10;;;;;;;;;;5050337;28;20611;-67
2023/03/25 12:43:05;;;;;;;10.20;9.80;;;;;;;;;;5045492;28;20603;-67
2023/03/25 12:45:46;;;;;;;9.80;9.40;;;;;;;;;;5053561;28;20720;-68
2023/03/25 12:48:24;;;;;;;11.30;10.73;;;;;;;;;;5054952;28;20575;-69
2023/03/25 12:50:56;;;;;;;11.37;10.73;;;;;;;;;;5053364;28;20800;-68
2023/03/25 12:53:30;;;;;;;11.17;10.67;;;;;;;;;;5050875;28;20611;-67
2023/03/25 12:56:05;;;;;;;11.13;10.63;;;;;;;;;;5043076;28;20649;-68
2023/03/25 12:58:43;;;;;;;11.50;10.70;;;;;;;;;;5041603;28;20584;-67
2023/03/25 13:01:16;;;;;;;10.47;9.87;;;;;;;;;;5053025;28;21182;-67
2023/03/25 13:03:50;;;;;;;10.77;10.27;;;;;;;;;;5049152;28;20613;-68
2023/03/25 13:06:22;;;;;;;11.63;11.03;;;;;;;;;;5049188;28;20664;-67
2023/03/25 13:08:52;;;;;;;10.67;10.27;;;;;;;;;;5034213;28;20598;-69
2023/03/25 13:11:23;;;;;;;11.70;11.10;;;;;;;;;;5033762;28;20582;-69
2023/03/25 13:13:54;;;;;;;12.17;11.37;;;;;;;;;;5059983;28;20623;-70
2023/03/25 13:16:26;;;;;;;12.87;12.07;;;;;;;;;;5061181;28;20679;-69
2023/03/25 13:18:56;;;;;;;13.67;12.83;;;;;;;;;;5056930;28;20615;-68
2023/03/25 13:21:27;;;;;;;14.17;13.17;;;;;;;;;;5049508;28;20633;-67
2023/03/25 13:23:57;;;;;;;12.30;11.50;;;;;;;;;;5054180;28;20923;-67
2023/03/25 13:26:28;;;;;;;12.67;11.87;;;;;;;;;;5034758;28;21041;-67
2023/03/25 13:28:58;;;;;;;11.57;10.87;;;;;;;;;;5033556;28;20662;-68
2023/03/25 13:31:29;;;;;;;12.27;11.43;;;;;;;;;;5051337;28;20627;-67
2023/03/25 13:34:02;;;;;;;13.27;12.30;;;;;;;;;;5055451;28;20611;-68
2023/03/25 13:36:37;;;;;;;11.60;11.07;;;;;;;;;;5062133;28;20660;-65
2023/03/25 13:39:07;;;;;;;12.27;11.57;;;;;;;;;;5056487;28;20618;-68
2023/03/25 13:41:39;;;;;;;11.97;11.47;;;;;;;;;;5049670;28;20588;-68
2023/03/25 13:44:11;;;;;;;14.07;13.00;;;;;;;;;;5060920;28;20618;-66
2023/03/25 13:46:42;;;;;;;12.50;11.90;;;;;;;;;;5061568;28;21104;-68
2023/03/25 13:49:14;;;;;;;12.07;11.13;;;;;;;;;;5058162;28;20631;-67
2023/03/25 13:51:42;;;;;;;12.20;11.47;;;;;;;;;;5064581;28;21382;-67
2023/03/25 13:54:15;;;;;;;12.23;11.47;;;;;;;;;;5062826;28;20634;-67
2023/03/25 13:56:56;;;;;;;11.93;11.33;;;;;;;;;;5057449;28;20606;-67
2023/03/25 13:59:33;;;;;;;12.67;12.07;;;;;;;;;;5057931;28;20631;-67
2023/03/25 14:02:11;;;;;;;11.50;11.00;;;;;;;;;;5057538;28;22529;-67
2023/03/25 14:04:57;;;;;;;12.77;12.17;;;;;;;;;;5060932;28;20601;-66
2023/03/25 14:07:47;;;;;;;12.07;11.47;;;;;;;;;;5032934;28;20613;-68
2023/03/25 14:10:30;;;;;;;11.87;11.27;;;;;;;;;;5060965;28;20615;-67
2023/03/25 14:13:00;;;;;;;12.10;11.47;;;;;;;;;;5060426;28;20621;-66
2023/03/25 14:15:30;;;;;;;11.90;11.40;;;;;;;;;;5048963;28;20661;-68
2023/03/25 14:18:00;;;;;;;12.50;12.00;;;;;;;;;;5041058;28;20623;-67
2023/03/25 14:20:33;;;;;;;12.67;12.07;;;;;;;;;;5067757;28;20975;-68
2023/03/25 14:23:03;;;;;;;12.60;12.00;;;;;;;;;;5059033;28;21141;-65
2023/03/25 14:25:36;;;;;;;12.67;12.07;;;;;;;;;;5048801;28;20611;-68
2023/03/25 14:28:04;;;;;;;12.57;12.07;;;;;;;;;;5052696;28;20614;-68
2023/03/25 14:30:33;;;;;;;12.83;12.07;;;;;;;;;;5052262;28;21302;-68
2023/03/25 14:33:03;;;;;;;13.60;12.90;;;;;;;;;;5052654;28;20595;-69
2023/03/25 14:35:58;;;;;;;13.23;12.43;;;;;;;;;;5050888;28;21015;-68
2023/03/25 14:38:49;;;;;;;12.90;12.30;;;;;;;;;;5051418;28;20587;-68
2023/03/25 14:41:17;;;;;;;13.30;12.37;;;;;;;;;;5053200;28;20602;-69
2023/03/25 14:43:46;;;;;;;13.37;12.77;;;;;;;;;;5053039;28;21058;-68
2023/03/25 14:46:17;;;;;;;13.07;12.27;;;;;;;;;;5052586;28;20620;-69
2023/03/25 14:48:50;;;;;;;14.40;13.40;;;;;;;;;;5052534;28;20599;-69
2023/03/25 14:51:20;;;;;;;13.13;12.27;;;;;;;;;;5050822;28;20656;-69
2023/03/25 14:53:51;;;;;;;14.00;13.20;;;;;;;;;;5052536;28;20598;-68
2023/03/25 14:56:20;;;;;;;13.60;12.70;;;;;;;;;;5052205;28;20631;-67
2023/03/25 14:58:52;;;;;;;12.93;12.33;;;;;;;;;;5052003;28;21038;-69
2023/03/25 15:01:21;;;;;;;13.17;12.43;;;;;;;;;;5051656;28;20995;-68